createdAt,value
2017-11-08T11:13:38.000Z,9.83
2017-11-08T11:14:11.000Z,9.76
2017-11-08T11:15:11.000Z,9.69
2017-11-08T11:16:11.000Z,9.64
2017-11-08T11:17:11.000Z,9.65
2017-11-08T11:18:11.000Z,9.68
2017-11-08T11:19:11.000Z,9.69
2017-11-08T11:20:11.000Z,9.70
2017-11-08T11:21:11.000Z,9.71
2017-11-08T11:22:11.000Z,9.64
2017-11-08T11:23:11.000Z,9.60
2017-11-08T11:24:11.000Z,9.64
2017-11-08T11:25:11.000Z,9.63
2017-11-08T11:26:11.000Z,9.57
2017-11-08T11:27:11.000Z,9.52
2017-11-08T11:28:11.000Z,9.45
2017-11-08T11:29:11.000Z,9.41
2017-11-08T11:30:11.000Z,9.41
2017-11-08T11:31:11.000Z,9.42
2017-11-08T11:32:11.000Z,9.45
2017-11-08T11:33:11.000Z,9.47
2017-11-08T11:34:11.000Z,9.52
2017-11-08T11:35:11.000Z,9.54
2017-11-08T11:36:11.000Z,9.56
2017-11-08T11:37:11.000Z,9.59
2017-11-08T11:38:11.000Z,9.58
2017-11-08T11:39:11.000Z,9.56
2017-11-08T11:40:11.000Z,9.57
2017-11-08T11:41:11.000Z,9.61
2017-11-08T11:42:11.000Z,9.66
2017-11-08T11:43:11.000Z,9.65
2017-11-08T11:44:11.000Z,9.68
2017-11-08T11:45:17.000Z,9.70
2017-11-08T11:46:11.000Z,9.70
2017-11-08T11:47:11.000Z,9.72
2017-11-08T11:48:11.000Z,9.73
2017-11-08T11:49:11.000Z,9.74
2017-11-08T11:50:11.000Z,9.79
2017-11-08T11:51:11.000Z,9.81
2017-11-08T11:52:11.000Z,9.83
2017-11-08T11:53:11.000Z,9.86
2017-11-08T11:54:11.000Z,9.87
2017-11-08T11:55:11.000Z,9.85
2017-11-08T11:56:11.000Z,9.85
2017-11-08T11:57:11.000Z,9.89
2017-11-08T11:58:11.000Z,9.97
2017-11-08T11:59:11.000Z,10.01
2017-11-08T12:00:11.000Z,10.02
2017-11-08T12:01:11.000Z,9.99
2017-11-08T12:02:11.000Z,9.96
2017-11-08T12:03:11.000Z,10.01
2017-11-08T12:04:11.000Z,10.03
2017-11-08T12:05:11.000Z,10.08
2017-11-08T12:06:11.000Z,10.09
2017-11-08T12:07:11.000Z,10.10
2017-11-08T12:08:11.000Z,10.07
2017-11-08T12:09:11.000Z,10.05
2017-11-08T12:10:11.000Z,10.02
2017-11-08T12:11:11.000Z,9.99
2017-11-08T12:12:11.000Z,9.98
2017-11-08T12:13:11.000Z,9.98
2017-11-08T12:14:11.000Z,9.97
2017-11-08T12:15:11.000Z,10.00
2017-11-08T12:16:11.000Z,9.99
2017-11-08T12:17:11.000Z,10.01
2017-11-08T12:18:11.000Z,10.03
2017-11-08T12:19:11.000Z,10.00
2017-11-08T12:20:11.000Z,9.99
2017-11-08T12:21:11.000Z,10.02
2017-11-08T12:22:11.000Z,10.05
2017-11-08T12:23:11.000Z,10.11
2017-11-08T12:24:11.000Z,10.15
2017-11-08T12:25:11.000Z,10.18
2017-11-08T12:26:11.000Z,10.24
2017-11-08T12:27:11.000Z,10.29
2017-11-08T12:28:11.000Z,10.33
2017-11-08T12:29:11.000Z,10.28
2017-11-08T12:30:11.000Z,10.27
2017-11-08T12:31:11.000Z,10.27
2017-11-08T12:32:11.000Z,10.27
2017-11-08T12:33:11.000Z,10.29
2017-11-08T12:34:11.000Z,10.30
2017-11-08T12:35:11.000Z,10.29
2017-11-08T12:36:11.000Z,10.24
2017-11-08T12:37:11.000Z,10.20
2017-11-08T12:38:11.000Z,10.16
2017-11-08T12:39:11.000Z,10.13
2017-11-08T12:40:11.000Z,10.12
2017-11-08T12:41:11.000Z,10.10
2017-11-08T12:42:11.000Z,10.08
2017-11-08T12:43:11.000Z,10.07
2017-11-08T12:44:11.000Z,10.07
2017-11-08T12:45:11.000Z,10.08
2017-11-08T12:46:11.000Z,10.10
2017-11-08T12:47:11.000Z,10.10
2017-11-08T12:48:11.000Z,10.12
2017-11-08T12:49:11.000Z,10.13
2017-11-08T12:50:11.000Z,10.14
2017-11-08T12:51:11.000Z,10.18
2017-11-08T12:52:11.000Z,10.22
2017-11-08T12:53:11.000Z,10.22
2017-11-08T12:54:11.000Z,10.22
2017-11-08T12:55:11.000Z,10.24
2017-11-08T12:56:11.000Z,10.24
2017-11-08T12:57:11.000Z,10.25
2017-11-08T12:58:11.000Z,10.27
2017-11-08T12:59:11.000Z,10.28
2017-11-08T13:00:11.000Z,10.28
2017-11-08T13:01:11.000Z,10.28
2017-11-08T13:02:11.000Z,10.29
2017-11-08T13:03:11.000Z,10.29
2017-11-08T13:04:11.000Z,10.28
2017-11-08T13:05:11.000Z,10.27
2017-11-08T13:06:11.000Z,10.25
2017-11-08T13:07:11.000Z,10.24
2017-11-08T13:08:11.000Z,10.23
2017-11-08T13:09:11.000Z,10.24
2017-11-08T13:10:11.000Z,10.22
2017-11-08T13:11:11.000Z,10.22
2017-11-08T13:12:11.000Z,10.20
2017-11-08T13:13:11.000Z,10.18
2017-11-08T13:14:11.000Z,10.16
2017-11-08T13:15:11.000Z,10.13
2017-11-08T13:16:11.000Z,10.07
2017-11-08T13:17:11.000Z,10.03
2017-11-08T13:18:11.000Z,10.00
2017-11-08T13:19:11.000Z,9.99
2017-11-08T13:20:11.000Z,10.00
2017-11-08T13:21:11.000Z,9.98
2017-11-08T13:22:11.000Z,9.98
2017-11-08T13:23:11.000Z,9.97
2017-11-08T13:24:11.000Z,9.98
2017-11-08T13:25:11.000Z,9.99
2017-11-08T13:26:11.000Z,9.98
2017-11-08T13:27:11.000Z,9.99
2017-11-08T13:28:11.000Z,10.00
2017-11-08T13:29:11.000Z,10.03
2017-11-08T13:30:11.000Z,10.05
2017-11-08T13:31:11.000Z,10.08
2017-11-08T13:32:11.000Z,10.09
2017-11-08T13:33:11.000Z,10.11
2017-11-08T13:34:11.000Z,10.14
2017-11-08T13:35:11.000Z,10.15
2017-11-08T13:36:11.000Z,10.17
2017-11-08T13:37:11.000Z,10.20
2017-11-08T13:38:11.000Z,10.20
2017-11-08T13:39:11.000Z,10.21
2017-11-08T13:40:11.000Z,10.18
2017-11-08T13:41:11.000Z,10.21
2017-11-08T13:42:11.000Z,10.21
2017-11-08T13:43:11.000Z,10.19
2017-11-08T13:44:11.000Z,10.16
2017-11-08T13:45:11.000Z,10.18
2017-11-08T13:46:11.000Z,10.17
2017-11-08T13:47:11.000Z,10.16
2017-11-08T13:48:11.000Z,10.16
2017-11-08T13:49:11.000Z,10.17
2017-11-08T13:50:11.000Z,10.17
2017-11-08T13:51:11.000Z,10.15
2017-11-08T13:52:11.000Z,10.12
2017-11-08T13:53:11.000Z,10.12
2017-11-08T13:54:11.000Z,10.10
2017-11-08T13:55:11.000Z,10.11
2017-11-08T13:56:11.000Z,10.13
2017-11-08T13:57:11.000Z,10.11
2017-11-08T13:58:11.000Z,11.42
2017-11-08T13:59:11.000Z,10.16
2017-11-08T14:00:11.000Z,10.18
2017-11-08T14:01:11.000Z,10.13
2017-11-08T14:02:11.000Z,10.13
2017-11-08T14:03:11.000Z,10.13
2017-11-08T14:04:11.000Z,10.14
2017-11-08T14:05:11.000Z,10.12
2017-11-08T14:06:11.000Z,10.09
2017-11-08T14:07:11.000Z,10.08
2017-11-08T14:08:11.000Z,10.08
2017-11-08T14:09:11.000Z,10.06
2017-11-08T14:10:11.000Z,10.08
2017-11-08T14:11:11.000Z,10.09
2017-11-08T14:12:11.000Z,10.08
2017-11-08T14:13:11.000Z,10.05
2017-11-08T14:14:11.000Z,10.06
2017-11-08T14:15:11.000Z,10.04
2017-11-08T14:16:11.000Z,10.03
2017-11-08T14:17:11.000Z,10.05
2017-11-08T14:18:11.000Z,10.05
2017-11-08T14:19:11.000Z,10.06
2017-11-08T14:20:11.000Z,10.04
2017-11-08T14:21:11.000Z,10.01
2017-11-08T14:22:11.000Z,10.02
2017-11-08T14:23:11.000Z,10.03
2017-11-08T14:24:11.000Z,10.01
2017-11-08T14:25:11.000Z,10.00
2017-11-08T14:26:11.000Z,9.95
2017-11-08T14:27:11.000Z,9.91
2017-11-08T14:28:11.000Z,9.93
2017-11-08T14:29:11.000Z,9.93
2017-11-08T14:30:11.000Z,9.91
2017-11-08T14:31:12.000Z,9.89
2017-11-08T14:32:11.000Z,9.87
2017-11-08T14:33:11.000Z,9.84
2017-11-08T14:34:11.000Z,9.85
2017-11-08T14:35:11.000Z,9.85
2017-11-08T14:36:11.000Z,9.83
2017-11-08T14:37:11.000Z,9.81
2017-11-08T14:38:11.000Z,9.79
2017-11-08T14:39:11.000Z,9.77
2017-11-08T14:40:11.000Z,9.76
2017-11-08T14:41:11.000Z,9.77
2017-11-08T14:42:11.000Z,9.78
2017-11-08T14:43:11.000Z,9.78
2017-11-08T15:57:30.000Z,9.21
2017-11-08T15:58:11.000Z,9.19
2017-11-08T15:59:11.000Z,9.19
2017-11-08T16:00:12.000Z,9.19
2017-11-08T16:01:12.000Z,9.19
2017-11-08T16:02:12.000Z,9.19
2017-11-08T16:03:12.000Z,9.18
2017-11-08T16:04:12.000Z,9.16
2017-11-08T16:05:12.000Z,9.15
2017-11-08T16:06:12.000Z,9.13
2017-11-08T16:07:12.000Z,9.14
2017-11-08T16:08:12.000Z,9.12
2017-11-08T16:09:12.000Z,9.12
2017-11-08T16:10:12.000Z,9.11
2017-11-08T16:11:12.000Z,9.10
2017-11-08T16:12:12.000Z,9.09
2017-11-08T16:13:12.000Z,9.09
2017-11-08T16:14:12.000Z,9.08
2017-11-08T16:15:12.000Z,9.06
2017-11-08T16:16:12.000Z,9.07
2017-11-08T16:17:12.000Z,9.06
2017-11-08T16:18:12.000Z,9.06
2017-11-08T16:19:12.000Z,9.07
2017-11-08T16:20:12.000Z,9.06
2017-11-08T16:21:12.000Z,9.03
2017-11-08T16:22:12.000Z,9.04
2017-11-08T16:23:12.000Z,9.04
2017-11-08T16:24:12.000Z,9.03
2017-11-08T16:25:12.000Z,9.03
2017-11-08T16:26:12.000Z,9.01
2017-11-08T16:27:12.000Z,9.00
2017-11-08T16:28:12.000Z,8.99
2017-11-08T16:29:12.000Z,9.00
2017-11-08T16:30:12.000Z,9.00
2017-11-08T16:31:12.000Z,8.99
2017-11-08T16:32:12.000Z,8.98
2017-11-08T16:33:12.000Z,8.99
2017-11-08T16:34:12.000Z,9.00
2017-11-08T16:35:12.000Z,8.99
2017-11-08T16:36:12.000Z,8.98
2017-11-08T16:37:12.000Z,8.97
2017-11-08T16:38:12.000Z,8.96
2017-11-08T16:39:12.000Z,8.94
2017-11-08T16:40:12.000Z,8.92
2017-11-08T16:41:12.000Z,8.92
2017-11-08T16:42:12.000Z,8.92
2017-11-08T16:43:12.000Z,8.92
2017-11-08T16:44:12.000Z,8.92
2017-11-08T16:45:12.000Z,8.91
2017-11-08T16:46:12.000Z,8.91
2017-11-08T16:47:12.000Z,8.91
2017-11-08T16:48:12.000Z,8.91
2017-11-08T16:49:12.000Z,8.90
2017-11-08T16:50:12.000Z,8.89
2017-11-08T16:51:12.000Z,8.90
2017-11-08T16:52:12.000Z,8.88
2017-11-08T16:53:12.000Z,8.88
2017-11-08T16:54:12.000Z,8.87
2017-11-08T16:55:12.000Z,8.86
2017-11-08T16:56:12.000Z,8.87
2017-11-08T16:57:12.000Z,8.86
2017-11-08T16:58:12.000Z,8.85
2017-11-08T16:59:12.000Z,8.84
2017-11-08T17:00:12.000Z,8.85
2017-11-08T17:01:12.000Z,8.84
2017-11-08T17:02:12.000Z,8.82
2017-11-08T17:03:12.000Z,8.82
2017-11-08T17:04:12.000Z,8.82
2017-11-08T17:05:12.000Z,8.81
2017-11-08T17:06:12.000Z,8.80
2017-11-08T17:07:12.000Z,8.78
2017-11-08T17:08:12.000Z,8.77
2017-11-08T17:09:12.000Z,8.78
2017-11-08T17:10:12.000Z,8.78
2017-11-08T17:11:12.000Z,8.78
2017-11-08T17:12:12.000Z,8.78
2017-11-08T17:13:12.000Z,8.77
2017-11-08T17:14:12.000Z,8.76
2017-11-08T17:15:12.000Z,8.76
2017-11-08T17:16:12.000Z,8.76
2017-11-08T17:17:12.000Z,8.73
2017-11-08T17:18:12.000Z,8.74
2017-11-08T17:19:12.000Z,8.73
2017-11-08T17:20:12.000Z,8.71
2017-11-08T17:21:12.000Z,8.73
2017-11-08T17:22:12.000Z,8.72
2017-11-08T17:23:12.000Z,8.73
2017-11-08T17:24:12.000Z,8.74
2017-11-08T17:25:12.000Z,8.71
2017-11-08T17:26:12.000Z,8.72
2017-11-08T17:27:12.000Z,8.71
2017-11-08T17:28:12.000Z,8.70
2017-11-08T17:29:12.000Z,8.70
2017-11-08T17:30:12.000Z,8.69
2017-11-08T17:31:12.000Z,8.68
2017-11-08T17:32:12.000Z,8.68
2017-11-08T17:33:12.000Z,8.69
2017-11-08T17:34:12.000Z,8.71
2017-11-08T17:35:12.000Z,8.70
2017-11-08T17:36:12.000Z,8.70
2017-11-08T17:37:12.000Z,8.69
2017-11-08T17:38:12.000Z,8.70
2017-11-08T17:39:12.000Z,8.70
2017-11-08T17:40:12.000Z,8.69
2017-11-08T17:41:12.000Z,8.69
2017-11-08T17:42:12.000Z,8.67
2017-11-08T17:43:12.000Z,8.67
2017-11-08T17:44:12.000Z,8.66
2017-11-08T17:45:12.000Z,8.67
2017-11-08T17:46:12.000Z,8.68
2017-11-08T17:47:12.000Z,8.68
2017-11-08T17:48:12.000Z,8.68
2017-11-08T17:49:12.000Z,8.69
2017-11-08T17:50:12.000Z,8.68
2017-11-08T17:51:12.000Z,8.67
2017-11-08T17:52:12.000Z,8.66
2017-11-08T17:53:12.000Z,8.65
2017-11-08T17:54:12.000Z,8.63
2017-11-08T17:55:12.000Z,8.63
2017-11-08T17:56:12.000Z,8.64
2017-11-08T17:57:12.000Z,8.65
2017-11-08T17:58:12.000Z,8.63
2017-11-08T17:59:12.000Z,8.63
2017-11-08T18:00:12.000Z,8.64
2017-11-08T18:01:12.000Z,8.62
2017-11-08T18:02:12.000Z,8.61
2017-11-08T18:03:12.000Z,8.60
2017-11-08T18:04:12.000Z,8.57
2017-11-08T18:05:12.000Z,8.51
2017-11-08T18:06:12.000Z,8.48
2017-11-08T18:07:12.000Z,8.46
2017-11-08T18:08:12.000Z,8.46
2017-11-08T18:09:12.000Z,8.43
2017-11-08T18:10:12.000Z,8.43
2017-11-08T18:11:12.000Z,8.43
2017-11-08T18:12:12.000Z,8.45
2017-11-08T18:13:12.000Z,8.45
2017-11-08T18:14:12.000Z,8.43
2017-11-08T18:15:12.000Z,8.39
2017-11-08T18:16:12.000Z,8.38
2017-11-08T18:17:12.000Z,8.37
2017-11-08T18:18:12.000Z,8.38
2017-11-08T18:19:12.000Z,8.36
2017-11-08T18:20:12.000Z,8.34
2017-11-08T18:21:12.000Z,8.31
2017-11-08T18:22:12.000Z,8.34
2017-11-08T18:23:12.000Z,8.32
2017-11-08T18:24:12.000Z,8.33
2017-11-08T18:25:12.000Z,8.32
2017-11-08T18:26:12.000Z,8.33
2017-11-08T18:27:12.000Z,8.33
2017-11-08T18:28:12.000Z,8.32
2017-11-08T18:29:12.000Z,8.32
2017-11-08T18:30:12.000Z,8.33
2017-11-08T18:31:12.000Z,8.34
2017-11-08T18:32:12.000Z,8.33
2017-11-08T18:33:12.000Z,8.29
2017-11-08T18:34:12.000Z,8.27
2017-11-08T18:35:12.000Z,8.27
2017-11-08T18:36:12.000Z,8.28
2017-11-08T18:37:12.000Z,8.28
2017-11-08T18:38:12.000Z,8.25
2017-11-08T18:39:12.000Z,8.25
2017-11-08T18:40:12.000Z,8.25
2017-11-08T18:41:12.000Z,8.28
2017-11-08T18:42:12.000Z,8.27
2017-11-08T18:43:12.000Z,8.22
2017-11-08T18:44:12.000Z,8.23
2017-11-08T18:45:12.000Z,8.23
2017-11-08T18:46:12.000Z,8.25
2017-11-08T18:47:12.000Z,8.27
2017-11-08T18:48:12.000Z,8.27
2017-11-08T18:49:12.000Z,8.26
2017-11-08T18:50:12.000Z,8.27
2017-11-08T18:51:12.000Z,8.28
2017-11-08T18:52:12.000Z,8.28
2017-11-08T18:53:12.000Z,8.28
2017-11-08T18:54:12.000Z,8.28
2017-11-08T18:55:12.000Z,8.28
2017-11-08T18:56:12.000Z,8.28
2017-11-08T18:57:12.000Z,8.29
2017-11-08T18:58:12.000Z,8.24
2017-11-08T18:59:12.000Z,8.23
2017-11-08T19:00:12.000Z,8.21
2017-11-08T19:01:12.000Z,8.21
2017-11-08T19:02:12.000Z,8.20
2017-11-08T19:03:12.000Z,8.20
2017-11-08T19:04:12.000Z,8.22
2017-11-08T19:05:12.000Z,8.19
2017-11-08T19:06:12.000Z,8.20
2017-11-08T19:07:12.000Z,8.20
2017-11-08T19:08:12.000Z,8.20
2017-11-08T19:09:12.000Z,8.21
2017-11-08T19:10:12.000Z,8.22
2017-11-08T19:11:12.000Z,8.23
2017-11-08T19:12:12.000Z,8.20
2017-11-08T19:13:12.000Z,8.21
2017-11-08T19:14:12.000Z,8.21
2017-11-08T19:15:12.000Z,8.19
2017-11-08T19:16:12.000Z,8.18
2017-11-08T19:17:12.000Z,8.18
2017-11-08T19:18:12.000Z,8.18
2017-11-08T19:19:12.000Z,8.17
2017-11-08T19:20:12.000Z,8.17
2017-11-08T19:21:12.000Z,8.17
2017-11-08T19:22:12.000Z,8.19
2017-11-08T19:23:12.000Z,8.17
2017-11-08T19:24:12.000Z,8.17
2017-11-08T19:25:12.000Z,8.17
2017-11-08T19:26:12.000Z,8.17
2017-11-08T19:27:12.000Z,8.16
2017-11-08T19:28:12.000Z,8.15
2017-11-08T19:29:12.000Z,8.13
2017-11-08T19:30:13.000Z,8.14
2017-11-08T19:31:12.000Z,8.14
2017-11-08T19:32:12.000Z,8.15
2017-11-08T19:33:12.000Z,8.15
2017-11-08T19:34:12.000Z,8.12
2017-11-08T19:35:12.000Z,8.13
2017-11-08T19:36:12.000Z,8.14
2017-11-08T19:37:12.000Z,8.13
2017-11-08T19:38:12.000Z,8.15
2017-11-08T19:39:12.000Z,8.14
2017-11-08T19:40:12.000Z,8.16
2017-11-08T19:41:12.000Z,8.15
2017-11-08T19:42:12.000Z,8.14
2017-11-08T19:43:12.000Z,8.16
2017-11-08T19:44:12.000Z,8.14
2017-11-08T19:45:12.000Z,8.12
2017-11-08T19:46:12.000Z,8.11
2017-11-08T19:47:12.000Z,8.10
2017-11-08T19:48:12.000Z,8.07
2017-11-08T19:49:12.000Z,8.08
2017-11-08T19:50:12.000Z,8.06
2017-11-08T19:51:12.000Z,8.07
2017-11-08T19:52:12.000Z,8.07
2017-11-08T19:53:12.000Z,8.07
2017-11-08T19:54:12.000Z,8.09
2017-11-08T19:55:12.000Z,8.08
2017-11-08T19:56:12.000Z,8.09
2017-11-08T19:57:12.000Z,8.09
2017-11-08T19:58:12.000Z,8.06
2017-11-08T19:59:12.000Z,8.04
2017-11-08T20:00:12.000Z,8.03
2017-11-08T20:01:12.000Z,8.02
2017-11-08T20:02:12.000Z,8.04
2017-11-08T20:03:12.000Z,8.03
2017-11-08T20:04:12.000Z,8.00
2017-11-08T20:05:12.000Z,8.00
2017-11-08T20:06:12.000Z,7.99
2017-11-08T20:07:12.000Z,7.99
2017-11-08T20:08:12.000Z,7.99
2017-11-08T20:09:12.000Z,7.99
2017-11-08T20:10:12.000Z,8.01
2017-11-08T20:11:12.000Z,8.01
2017-11-08T20:12:12.000Z,8.00
2017-11-08T20:13:12.000Z,8.00
2017-11-08T20:14:12.000Z,8.01
2017-11-08T20:15:12.000Z,8.02
2017-11-08T20:16:12.000Z,8.03
2017-11-08T20:17:12.000Z,8.05
2017-11-08T20:18:12.000Z,8.06
2017-11-08T20:19:12.000Z,8.06
2017-11-08T20:20:12.000Z,8.07
2017-11-08T20:21:12.000Z,8.06
2017-11-08T20:22:12.000Z,8.06
2017-11-08T20:23:12.000Z,8.04
2017-11-08T20:24:12.000Z,8.04
2017-11-08T20:25:12.000Z,8.02
2017-11-08T20:26:12.000Z,8.03
2017-11-08T20:27:12.000Z,8.02
2017-11-08T20:28:12.000Z,8.02
2017-11-08T20:29:12.000Z,8.01
2017-11-08T20:30:12.000Z,7.99
2017-11-08T20:31:12.000Z,7.98
2017-11-08T20:32:12.000Z,7.98
2017-11-08T20:33:12.000Z,7.96
2017-11-08T20:34:12.000Z,7.97
2017-11-08T20:35:12.000Z,7.97
2017-11-08T20:36:12.000Z,7.95
2017-11-08T20:37:12.000Z,7.94
2017-11-08T20:38:12.000Z,7.93
2017-11-08T20:39:12.000Z,7.93
2017-11-08T20:40:12.000Z,7.90
2017-11-08T20:41:12.000Z,7.89
2017-11-08T20:42:12.000Z,7.90
2017-11-08T20:43:12.000Z,7.89
2017-11-08T20:44:12.000Z,7.90
2017-11-08T20:45:12.000Z,7.90
2017-11-08T20:46:12.000Z,7.91
2017-11-08T20:47:12.000Z,7.90
2017-11-08T20:48:12.000Z,7.92
2017-11-08T20:49:12.000Z,7.91
2017-11-08T20:50:12.000Z,7.91
2017-11-08T20:51:12.000Z,7.90
2017-11-08T20:52:13.000Z,7.89
2017-11-08T20:53:13.000Z,7.87
2017-11-08T20:54:13.000Z,7.87
2017-11-08T20:55:13.000Z,7.87
2017-11-08T20:56:13.000Z,7.86
2017-11-08T20:57:13.000Z,7.86
2017-11-08T20:58:13.000Z,7.87
2017-11-08T20:59:13.000Z,7.86
2017-11-08T21:00:13.000Z,7.87
2017-11-08T21:01:13.000Z,7.86
2017-11-08T21:02:13.000Z,7.86
2017-11-08T21:03:13.000Z,7.88
2017-11-08T21:04:13.000Z,7.89
2017-11-08T21:05:13.000Z,7.90
2017-11-08T21:06:13.000Z,7.91
2017-11-08T21:07:13.000Z,7.91
2017-11-08T21:08:13.000Z,7.91
2017-11-08T21:09:13.000Z,7.89
2017-11-08T21:10:13.000Z,7.86
2017-11-08T21:11:13.000Z,7.87
2017-11-08T21:12:13.000Z,7.88
2017-11-08T21:13:13.000Z,7.89
2017-11-08T21:14:13.000Z,7.89
2017-11-08T21:15:13.000Z,7.90
2017-11-08T21:16:13.000Z,7.90
2017-11-08T21:17:13.000Z,7.90
2017-11-08T21:18:13.000Z,7.89
2017-11-08T21:19:13.000Z,7.90
2017-11-08T21:20:13.000Z,7.89
2017-11-08T21:21:13.000Z,7.89
2017-11-08T21:22:13.000Z,7.89
2017-11-08T21:23:13.000Z,7.88
2017-11-08T21:24:13.000Z,7.89
2017-11-08T21:25:13.000Z,7.86
2017-11-08T21:26:13.000Z,7.87
2017-11-08T21:27:13.000Z,7.86
2017-11-08T21:28:13.000Z,7.86
2017-11-08T21:29:13.000Z,7.82
2017-11-08T21:30:13.000Z,7.81
2017-11-08T21:31:13.000Z,7.78
2017-11-08T21:32:13.000Z,7.78
2017-11-08T21:33:13.000Z,7.79
2017-11-08T21:34:13.000Z,7.77
2017-11-08T21:35:13.000Z,7.77
2017-11-08T21:36:13.000Z,7.77
2017-11-08T21:37:13.000Z,7.77
2017-11-08T21:38:13.000Z,7.77
2017-11-08T21:39:13.000Z,7.77
2017-11-08T21:40:13.000Z,7.79
2017-11-08T21:41:13.000Z,7.77
2017-11-08T21:42:13.000Z,7.77
2017-11-08T21:43:13.000Z,7.78
2017-11-08T21:44:13.000Z,7.76
2017-11-08T21:45:13.000Z,7.71
2017-11-08T21:46:13.000Z,7.71
2017-11-08T21:47:13.000Z,7.70
2017-11-08T21:48:13.000Z,7.70
2017-11-08T21:49:13.000Z,7.71
2017-11-08T21:50:13.000Z,7.73
2017-11-08T21:51:13.000Z,7.74
2017-11-08T21:52:13.000Z,7.75
2017-11-08T21:53:13.000Z,7.76
2017-11-08T21:54:13.000Z,7.78
2017-11-08T21:55:13.000Z,7.78
2017-11-08T21:56:13.000Z,7.78
2017-11-08T21:57:13.000Z,7.78
2017-11-08T21:58:13.000Z,7.80
2017-11-08T21:59:13.000Z,7.81
2017-11-08T22:00:13.000Z,7.82
2017-11-08T22:01:13.000Z,7.79
2017-11-08T22:02:13.000Z,7.79
2017-11-08T22:03:13.000Z,7.79
2017-11-08T22:04:13.000Z,7.77
2017-11-08T22:05:13.000Z,7.80
2017-11-08T22:06:13.000Z,7.79
2017-11-08T22:07:13.000Z,7.78
2017-11-08T22:08:13.000Z,7.76
2017-11-08T22:09:13.000Z,7.75
2017-11-08T22:10:13.000Z,7.73
2017-11-08T22:11:13.000Z,7.74
2017-11-08T22:12:13.000Z,7.73
2017-11-08T22:13:13.000Z,7.75
2017-11-08T22:14:13.000Z,7.75
2017-11-08T22:15:13.000Z,7.76
2017-11-08T22:16:13.000Z,7.78
2017-11-08T22:17:13.000Z,7.78
2017-11-08T22:18:13.000Z,7.75
2017-11-08T22:19:13.000Z,7.77
2017-11-08T22:20:13.000Z,7.76
2017-11-08T22:21:13.000Z,7.74
2017-11-08T22:22:13.000Z,7.76
2017-11-08T22:23:13.000Z,7.77
2017-11-08T22:24:13.000Z,7.79
2017-11-08T22:25:13.000Z,7.79
2017-11-08T22:26:13.000Z,7.77
2017-11-08T22:27:13.000Z,7.77
2017-11-08T22:28:13.000Z,7.75
2017-11-08T22:29:13.000Z,7.76
2017-11-08T22:30:13.000Z,7.77
2017-11-08T22:31:13.000Z,7.77
2017-11-08T22:32:13.000Z,7.76
2017-11-08T22:33:13.000Z,7.75
2017-11-08T22:34:13.000Z,7.74
2017-11-08T22:35:13.000Z,7.73
2017-11-08T22:36:13.000Z,7.71
2017-11-08T22:37:13.000Z,7.73
2017-11-08T22:38:13.000Z,7.71
2017-11-08T22:39:13.000Z,7.70
2017-11-08T22:40:13.000Z,7.73
2017-11-08T22:41:13.000Z,7.71
2017-11-08T22:42:13.000Z,7.71
2017-11-08T22:43:13.000Z,7.71
2017-11-08T22:44:13.000Z,7.71
2017-11-08T22:45:13.000Z,7.71
2017-11-08T22:46:13.000Z,7.71
2017-11-08T22:47:13.000Z,7.69
2017-11-08T22:48:13.000Z,7.71
2017-11-08T22:49:13.000Z,7.70
2017-11-08T22:50:13.000Z,7.69
2017-11-08T22:51:13.000Z,7.67
2017-11-08T22:52:13.000Z,7.68
2017-11-08T22:53:13.000Z,7.67
2017-11-08T22:54:13.000Z,7.66
2017-11-08T22:55:13.000Z,7.66
2017-11-08T22:56:13.000Z,7.66
2017-11-08T22:57:13.000Z,7.66
2017-11-08T22:58:13.000Z,7.67
2017-11-08T22:59:13.000Z,7.68
2017-11-08T23:00:13.000Z,7.67
2017-11-08T23:01:13.000Z,7.69
2017-11-08T23:02:13.000Z,7.69
2017-11-08T23:03:13.000Z,7.65
2017-11-08T23:04:13.000Z,7.66
2017-11-08T23:05:13.000Z,7.66
2017-11-08T23:06:13.000Z,7.62
2017-11-08T23:07:13.000Z,7.62
2017-11-08T23:08:13.000Z,7.63
2017-11-08T23:09:13.000Z,7.64
2017-11-08T23:10:13.000Z,7.64
2017-11-08T23:11:13.000Z,7.64
2017-11-08T23:12:13.000Z,7.63
2017-11-08T23:13:13.000Z,7.64
2017-11-08T23:14:13.000Z,7.64
2017-11-08T23:15:13.000Z,7.67
2017-11-08T23:16:13.000Z,7.66
2017-11-08T23:17:13.000Z,7.67
2017-11-08T23:18:13.000Z,7.67
2017-11-08T23:19:13.000Z,7.61
2017-11-08T23:20:13.000Z,7.61
2017-11-08T23:21:13.000Z,7.61
2017-11-08T23:22:13.000Z,7.64
2017-11-08T23:23:13.000Z,7.62
2017-11-08T23:24:13.000Z,7.63
2017-11-08T23:25:13.000Z,7.63
2017-11-08T23:26:13.000Z,7.61
2017-11-08T23:27:13.000Z,7.61
2017-11-08T23:28:13.000Z,7.61
2017-11-08T23:29:13.000Z,7.61
2017-11-08T23:30:13.000Z,7.59
2017-11-08T23:31:13.000Z,7.57
2017-11-08T23:32:13.000Z,7.55
2017-11-08T23:33:13.000Z,7.53
2017-11-08T23:34:13.000Z,7.50
2017-11-08T23:35:13.000Z,7.52
2017-11-08T23:36:13.000Z,7.53
2017-11-08T23:37:13.000Z,7.51
2017-11-08T23:38:13.000Z,7.54
2017-11-08T23:39:13.000Z,7.55
2017-11-08T23:40:13.000Z,7.56
2017-11-08T23:41:13.000Z,7.55
2017-11-08T23:42:13.000Z,7.57
2017-11-08T23:43:13.000Z,7.58
2017-11-08T23:44:13.000Z,7.57
2017-11-08T23:45:13.000Z,7.57
2017-11-08T23:46:13.000Z,7.58
2017-11-08T23:47:13.000Z,7.56
2017-11-08T23:48:13.000Z,7.55
2017-11-08T23:49:13.000Z,7.57
2017-11-08T23:50:13.000Z,7.58
2017-11-08T23:51:13.000Z,7.56
2017-11-08T23:52:16.000Z,7.56
2017-11-08T23:53:13.000Z,7.55
2017-11-08T23:54:13.000Z,7.56
2017-11-08T23:55:13.000Z,7.57
2017-11-08T23:56:13.000Z,7.56
2017-11-08T23:57:13.000Z,7.55
2017-11-08T23:58:13.000Z,7.53
2017-11-08T23:59:13.000Z,7.55
